LNR032 LFBX-LSZS
Flight info
| Callsign | LNR032 |
|---|---|
| Flight time | 1h 14m |
| Altitude | 45000 |
| Route | LMG DCT GIPNO/N0496F430 DCT RIPUS DCT PELAD |
| Aircraft | C750/M-SBDE3FGHRWXY/S |
Departure
| Time | 2026-05-05 15:00 |
|---|---|
| Airport | Périgueux-Bassillac Airport (LFBX) |
Arrival
| Time | 2026-05-05 16:14 |
|---|---|
| Airport | Engadin Airport (LSZS) |
| Time | Latitude | Longitude | Altitude | Speed | Heading |
|---|---|---|---|---|---|
| 2026-05-05 14:47 | 45.19654 | 0.81366 | 317 ft | 0 kts | 338° |
| 2026-05-05 14:55 | 45.19664 | 0.81360 | 316 ft | 3 kts | 338° |
| 2026-05-05 14:55 | 45.19684 | 0.81372 | 315 ft | 5 kts | 55° |
| 2026-05-05 14:55 | 45.19677 | 0.81414 | 316 ft | 4 kts | 115° |
| 2026-05-05 14:55 | 45.19668 | 0.81442 | 317 ft | 2 kts | 109° |
| 2026-05-05 14:56 | 45.19673 | 0.81466 | 317 ft | 3 kts | 53° |
| 2026-05-05 14:56 | 45.19699 | 0.81493 | 318 ft | 6 kts | 31° |
| 2026-05-05 14:56 | 45.19735 | 0.81526 | 319 ft | 6 kts | 49° |
| 2026-05-05 14:56 | 45.19726 | 0.81587 | 321 ft | 8 kts | 112° |
| 2026-05-05 14:57 | 45.19701 | 0.81675 | 322 ft | 12 kts | 112° |
| 2026-05-05 14:57 | 45.19661 | 0.81808 | 320 ft | 18 kts | 113° |
| 2026-05-05 14:57 | 45.19610 | 0.81975 | 323 ft | 18 kts | 113° |
| 2026-05-05 14:57 | 45.19559 | 0.82144 | 323 ft | 20 kts | 114° |
| 2026-05-05 14:58 | 45.19500 | 0.82326 | 328 ft | 20 kts | 115° |
| 2026-05-05 14:58 | 45.19449 | 0.82492 | 333 ft | 17 kts | 114° |
| 2026-05-05 14:58 | 45.19405 | 0.82580 | 335 ft | 6 kts | 153° |
| 2026-05-05 14:58 | 45.19409 | 0.82603 | 334 ft | 3 kts | 10° |
| 2026-05-05 14:59 | 45.19425 | 0.82565 | 332 ft | 10 kts | 294° |
| 2026-05-05 14:59 | 45.19565 | 0.82113 | 324 ft | 99 kts | 293° |
| 2026-05-05 14:59 | 45.19925 | 0.80942 | 464 ft | 144 kts | 292° |
| 2026-05-05 14:59 | 45.20387 | 0.79564 | 885 ft | 165 kts | 294° |
| 2026-05-05 15:00 | 45.20871 | 0.77982 | 1323 ft | 188 kts | 291° |
| 2026-05-05 15:00 | 45.21242 | 0.76787 | 1599 ft | 203 kts | 292° |
| 2026-05-05 15:00 | 45.22670 | 0.75062 | 2402 ft | 225 kts | 342° |
| 2026-05-05 15:00 | 45.24334 | 0.75330 | 2670 ft | 265 kts | 23° |
| 2026-05-05 15:01 | 45.25712 | 0.77095 | 3609 ft | 267 kts | 49° |
| 2026-05-05 15:01 | 45.26837 | 0.79189 | 4604 ft | 270 kts | 51° |
| 2026-05-05 15:01 | 45.27989 | 0.81340 | 5456 ft | 275 kts | 52° |
| 2026-05-05 15:01 | 45.29166 | 0.83504 | 6345 ft | 280 kts | 51° |
| 2026-05-05 15:02 | 45.30437 | 0.85634 | 7075 ft | 287 kts | 40° |
| 2026-05-05 15:02 | 45.32194 | 0.86914 | 8036 ft | 284 kts | 14° |
| 2026-05-05 15:02 | 45.34151 | 0.87373 | 8987 ft | 287 kts | 5° |
| 2026-05-05 15:02 | 45.36134 | 0.87760 | 9807 ft | 293 kts | 8° |
| 2026-05-05 15:03 | 45.38159 | 0.88386 | 10385 ft | 306 kts | 12° |
| 2026-05-05 15:03 | 45.40311 | 0.89170 | 10492 ft | 333 kts | 13° |
| 2026-05-05 15:03 | 45.42664 | 0.89959 | 10552 ft | 358 kts | 11° |
| 2026-05-05 15:03 | 45.45115 | 0.90711 | 11314 ft | 359 kts | 11° |
| 2026-05-05 15:04 | 45.47562 | 0.91483 | 11971 ft | 364 kts | 12° |
| 2026-05-05 15:04 | 45.50055 | 0.92301 | 12653 ft | 369 kts | 12° |
| 2026-05-05 15:04 | 45.52577 | 0.93126 | 13308 ft | 373 kts | 12° |
| 2026-05-05 15:04 | 45.55095 | 0.93932 | 13913 ft | 377 kts | 11° |
| 2026-05-05 15:05 | 45.60273 | 0.95612 | 15020 ft | 384 kts | 12° |
| 2026-05-05 15:05 | 45.62892 | 0.96469 | 15570 ft | 388 kts | 12° |
| 2026-05-05 15:05 | 45.65530 | 0.97321 | 16135 ft | 391 kts | 12° |
| 2026-05-05 15:06 | 45.68201 | 0.98186 | 16693 ft | 394 kts | 12° |
| 2026-05-05 15:06 | 45.70885 | 0.99062 | 17248 ft | 397 kts | 12° |
| 2026-05-05 15:06 | 45.73592 | 0.99946 | 17839 ft | 401 kts | 12° |
| 2026-05-05 15:06 | 45.76333 | 1.00838 | 18391 ft | 405 kts | 12° |
| 2026-05-05 15:07 | 45.78994 | 1.02042 | 18869 ft | 409 kts | 26° |
| 2026-05-05 15:07 | 45.81364 | 1.04280 | 19484 ft | 409 kts | 41° |
| 2026-05-05 15:07 | 45.83234 | 1.07330 | 20098 ft | 408 kts | 57° |
| 2026-05-05 15:07 | 45.84603 | 1.10912 | 20631 ft | 409 kts | 65° |
| 2026-05-05 15:08 | 45.85890 | 1.14561 | 21230 ft | 411 kts | 65° |
| 2026-05-05 15:08 | 45.87194 | 1.18236 | 21768 ft | 414 kts | 64° |
| 2026-05-05 15:08 | 45.88517 | 1.21929 | 22359 ft | 418 kts | 64° |
| 2026-05-05 15:08 | 45.89849 | 1.25662 | 22889 ft | 421 kts | 64° |
| 2026-05-05 15:09 | 45.91182 | 1.29425 | 23454 ft | 423 kts | 65° |
| 2026-05-05 15:09 | 45.92509 | 1.33176 | 23889 ft | 427 kts | 64° |
| 2026-05-05 15:09 | 45.93732 | 1.37064 | 24274 ft | 429 kts | 73° |
| 2026-05-05 15:09 | 45.94396 | 1.41246 | 24734 ft | 429 kts | 84° |
| 2026-05-05 15:10 | 45.94485 | 1.45522 | 25148 ft | 429 kts | 96° |
| 2026-05-05 15:10 | 45.94169 | 1.49799 | 25570 ft | 431 kts | 98° |
| 2026-05-05 15:10 | 45.93832 | 1.54106 | 25995 ft | 435 kts | 98° |
| 2026-05-05 15:10 | 45.93508 | 1.58384 | 26401 ft | 438 kts | 98° |
| 2026-05-05 15:11 | 45.93173 | 1.62771 | 26748 ft | 443 kts | 98° |
| 2026-05-05 15:11 | 45.92824 | 1.67197 | 27190 ft | 446 kts | 98° |
| 2026-05-05 15:11 | 45.92473 | 1.71638 | 27621 ft | 449 kts | 98° |
| 2026-05-05 15:11 | 45.92120 | 1.76144 | 28040 ft | 453 kts | 98° |
| 2026-05-05 15:12 | 45.91769 | 1.80602 | 28470 ft | 456 kts | 98° |
| 2026-05-05 15:12 | 45.91404 | 1.85160 | 28894 ft | 460 kts | 98° |
| 2026-05-05 15:12 | 45.91037 | 1.89750 | 29302 ft | 463 kts | 98° |
| 2026-05-05 15:12 | 45.90667 | 1.94375 | 29714 ft | 467 kts | 98° |
| 2026-05-05 15:13 | 45.90292 | 1.99032 | 30060 ft | 471 kts | 98° |
| 2026-05-05 15:13 | 45.89915 | 2.03665 | 30356 ft | 474 kts | 99° |
| 2026-05-05 15:13 | 45.89529 | 2.08389 | 30723 ft | 477 kts | 99° |
| 2026-05-05 15:13 | 45.89142 | 2.13128 | 31161 ft | 477 kts | 99° |
| 2026-05-05 15:14 | 45.88754 | 2.17849 | 31702 ft | 475 kts | 99° |
| 2026-05-05 15:14 | 45.88365 | 2.22538 | 32181 ft | 474 kts | 99° |
| 2026-05-05 15:14 | 45.87973 | 2.27239 | 32663 ft | 474 kts | 99° |
| 2026-05-05 15:14 | 45.87580 | 2.31940 | 33168 ft | 473 kts | 99° |
| 2026-05-05 15:15 | 45.87185 | 2.36640 | 33656 ft | 473 kts | 99° |
| 2026-05-05 15:15 | 45.86790 | 2.41315 | 34126 ft | 472 kts | 99° |
| 2026-05-05 15:15 | 45.86396 | 2.45945 | 34518 ft | 472 kts | 99° |
| 2026-05-05 15:15 | 45.85996 | 2.50624 | 34908 ft | 473 kts | 99° |
| 2026-05-05 15:16 | 45.85593 | 2.55320 | 35305 ft | 473 kts | 99° |
| 2026-05-05 15:16 | 45.85189 | 2.60005 | 35709 ft | 474 kts | 99° |
| 2026-05-05 15:16 | 45.84781 | 2.64716 | 36113 ft | 475 kts | 99° |
| 2026-05-05 15:16 | 45.84371 | 2.69421 | 36520 ft | 475 kts | 100° |
| 2026-05-05 15:17 | 45.83966 | 2.74051 | 36918 ft | 475 kts | 100° |
| 2026-05-05 15:17 | 45.83552 | 2.78769 | 37281 ft | 477 kts | 100° |
| 2026-05-05 15:17 | 45.83132 | 2.83507 | 37657 ft | 478 kts | 100° |
| 2026-05-05 15:17 | 45.82713 | 2.88236 | 38072 ft | 478 kts | 100° |
| 2026-05-05 15:18 | 45.82292 | 2.92976 | 38498 ft | 479 kts | 100° |
| 2026-05-05 15:18 | 45.81867 | 2.97735 | 38862 ft | 479 kts | 100° |
| 2026-05-05 15:18 | 45.81444 | 3.02417 | 39224 ft | 479 kts | 100° |
| 2026-05-05 15:18 | 45.81014 | 3.07144 | 39562 ft | 479 kts | 100° |
| 2026-05-05 15:19 | 45.80582 | 3.11890 | 39913 ft | 479 kts | 100° |
| 2026-05-05 15:19 | 45.80148 | 3.16635 | 40246 ft | 479 kts | 100° |
| 2026-05-05 15:19 | 45.79714 | 3.21374 | 40581 ft | 479 kts | 100° |
| 2026-05-05 15:19 | 45.79279 | 3.26116 | 40952 ft | 479 kts | 100° |
| 2026-05-05 15:20 | 45.78846 | 3.30789 | 41312 ft | 479 kts | 100° |
| 2026-05-05 15:20 | 45.78404 | 3.35528 | 41669 ft | 478 kts | 100° |
| 2026-05-05 15:20 | 45.77962 | 3.40258 | 42025 ft | 478 kts | 100° |
| 2026-05-05 15:20 | 45.77520 | 3.44975 | 42377 ft | 478 kts | 100° |
| 2026-05-05 15:21 | 45.77075 | 3.49697 | 42751 ft | 477 kts | 100° |
| 2026-05-05 15:21 | 45.76626 | 3.54428 | 42876 ft | 483 kts | 100° |
| 2026-05-05 15:21 | 45.76168 | 3.59230 | 42879 ft | 490 kts | 100° |
| 2026-05-05 15:22 | 45.75227 | 3.69052 | 42894 ft | 504 kts | 100° |
| 2026-05-05 15:22 | 45.74256 | 3.79063 | 42894 ft | 517 kts | 100° |
| 2026-05-05 15:23 | 45.73253 | 3.89413 | 42888 ft | 527 kts | 100° |
| 2026-05-05 15:23 | 45.72224 | 3.99796 | 42893 ft | 526 kts | 100° |
| 2026-05-05 15:24 | 45.71196 | 4.10144 | 42883 ft | 527 kts | 100° |
| 2026-05-05 15:24 | 45.70150 | 4.20545 | 42885 ft | 527 kts | 101° |
| 2026-05-05 15:25 | 45.69103 | 4.30877 | 42869 ft | 527 kts | 100° |
| 2026-05-05 15:25 | 45.68041 | 4.41250 | 42879 ft | 527 kts | 101° |
| 2026-05-05 15:26 | 45.66968 | 4.51632 | 42879 ft | 527 kts | 101° |
| 2026-05-05 15:26 | 45.65888 | 4.61997 | 42876 ft | 527 kts | 101° |
| 2026-05-05 15:27 | 45.64797 | 4.72372 | 42877 ft | 527 kts | 101° |
| 2026-05-05 15:27 | 45.63690 | 4.82791 | 42880 ft | 529 kts | 101° |
| 2026-05-05 15:28 | 45.62584 | 4.93132 | 42882 ft | 529 kts | 101° |
| 2026-05-05 15:28 | 45.61651 | 5.01771 | 42885 ft | 529 kts | 101° |
| 2026-05-05 15:29 | 45.60520 | 5.12160 | 42882 ft | 529 kts | 101° |
| 2026-05-05 15:29 | 45.59379 | 5.22557 | 42885 ft | 531 kts | 101° |
| 2026-05-05 15:30 | 45.58040 | 5.34647 | 42885 ft | 528 kts | 102° |
| 2026-05-05 15:30 | 45.57460 | 5.43354 | 42874 ft | 532 kts | 91° |
| 2026-05-05 15:31 | 45.58643 | 5.53827 | 42879 ft | 539 kts | 74° |
| 2026-05-05 15:31 | 45.61876 | 5.63496 | 42881 ft | 542 kts | 57° |
| 2026-05-05 15:32 | 45.66880 | 5.71578 | 42897 ft | 543 kts | 42° |
| 2026-05-05 15:32 | 45.72635 | 5.78572 | 42901 ft | 543 kts | 40° |
| 2026-05-05 15:33 | 45.77924 | 5.86193 | 42908 ft | 542 kts | 49° |
| 2026-05-05 15:33 | 45.82801 | 5.94479 | 42908 ft | 544 kts | 48° |
| 2026-05-05 15:34 | 45.88085 | 6.02286 | 42914 ft | 544 kts | 46° |
| 2026-05-05 15:34 | 45.93126 | 6.10388 | 42913 ft | 544 kts | 49° |
| 2026-05-05 15:35 | 45.98257 | 6.18285 | 42917 ft | 544 kts | 46° |
| 2026-05-05 15:35 | 46.03364 | 6.26353 | 42909 ft | 545 kts | 48° |
| 2026-05-05 15:36 | 46.08495 | 6.34410 | 42892 ft | 544 kts | 47° |
| 2026-05-05 15:36 | 46.13589 | 6.42441 | 42889 ft | 546 kts | 48° |
| 2026-05-05 15:37 | 46.18701 | 6.50550 | 42895 ft | 546 kts | 47° |
| 2026-05-05 15:37 | 46.23814 | 6.58646 | 42893 ft | 543 kts | 47° |
| 2026-05-05 15:38 | 46.28858 | 6.66697 | 42884 ft | 544 kts | 47° |
| 2026-05-05 15:38 | 46.33947 | 6.74805 | 42895 ft | 544 kts | 47° |
| 2026-05-05 15:39 | 46.39013 | 6.82933 | 42892 ft | 542 kts | 47° |
| 2026-05-05 15:39 | 46.44055 | 6.91022 | 42883 ft | 539 kts | 48° |
| 2026-05-05 15:40 | 46.49079 | 6.99125 | 42875 ft | 540 kts | 48° |
| 2026-05-05 15:40 | 46.54081 | 7.07202 | 42883 ft | 541 kts | 48° |
| 2026-05-05 15:41 | 46.59116 | 7.15366 | 42884 ft | 541 kts | 48° |
| 2026-05-05 15:41 | 46.64141 | 7.23537 | 42882 ft | 541 kts | 48° |
| 2026-05-05 15:42 | 46.66642 | 7.27608 | 42877 ft | 541 kts | 48° |
| 2026-05-05 15:42 | 46.70594 | 7.34064 | 42867 ft | 542 kts | 48° |
| 2026-05-05 15:43 | 46.75620 | 7.42290 | 42876 ft | 542 kts | 48° |
| 2026-05-05 15:43 | 46.80616 | 7.50496 | 42862 ft | 540 kts | 48° |
| 2026-05-05 15:44 | 46.85618 | 7.58738 | 42865 ft | 541 kts | 48° |
| 2026-05-05 15:44 | 46.90609 | 7.66972 | 42870 ft | 541 kts | 48° |
| 2026-05-05 15:45 | 46.95588 | 7.75236 | 42868 ft | 538 kts | 48° |
| 2026-05-05 15:45 | 47.00504 | 7.83396 | 42857 ft | 537 kts | 48° |
| 2026-05-05 15:46 | 47.05450 | 7.91642 | 42856 ft | 538 kts | 49° |
| 2026-05-05 15:46 | 47.10355 | 7.99857 | 42864 ft | 538 kts | 49° |
| 2026-05-05 15:47 | 47.15284 | 8.08117 | 42851 ft | 536 kts | 49° |
| 2026-05-05 15:47 | 47.20203 | 8.16391 | 42849 ft | 536 kts | 49° |
| 2026-05-05 15:47 | 47.22614 | 8.20470 | 42655 ft | 531 kts | 49° |
| 2026-05-05 15:48 | 47.24790 | 8.24826 | 41890 ft | 523 kts | 58° |
| 2026-05-05 15:48 | 47.26474 | 8.29504 | 41207 ft | 514 kts | 68° |
| 2026-05-05 15:48 | 47.27655 | 8.34439 | 40557 ft | 505 kts | 77° |
| 2026-05-05 15:48 | 47.28302 | 8.39468 | 39942 ft | 494 kts | 86° |
| 2026-05-05 15:49 | 47.28418 | 8.44477 | 39336 ft | 484 kts | 96° |
| 2026-05-05 15:49 | 47.28016 | 8.49322 | 38756 ft | 472 kts | 105° |
| 2026-05-05 15:49 | 47.27117 | 8.53898 | 38122 ft | 460 kts | 115° |
| 2026-05-05 15:49 | 47.25749 | 8.58092 | 37525 ft | 450 kts | 124° |
| 2026-05-05 15:50 | 47.24079 | 8.61973 | 36952 ft | 447 kts | 128° |
| 2026-05-05 15:50 | 47.22347 | 8.65825 | 36372 ft | 454 kts | 128° |
| 2026-05-05 15:50 | 47.20688 | 8.69846 | 35751 ft | 463 kts | 124° |
| 2026-05-05 15:50 | 47.19323 | 8.74133 | 35168 ft | 473 kts | 117° |
| 2026-05-05 15:51 | 47.18211 | 8.78738 | 34548 ft | 479 kts | 113° |
| 2026-05-05 15:51 | 47.17203 | 8.83386 | 33927 ft | 479 kts | 113° |
| 2026-05-05 15:51 | 47.16065 | 8.87993 | 33242 ft | 475 kts | 117° |
| 2026-05-05 15:51 | 47.14748 | 8.92449 | 32617 ft | 475 kts | 119° |
| 2026-05-05 15:52 | 47.13461 | 8.96938 | 31982 ft | 478 kts | 116° |
| 2026-05-05 15:52 | 47.12297 | 9.01518 | 31348 ft | 479 kts | 115° |
| 2026-05-05 15:52 | 47.11130 | 9.06099 | 30727 ft | 477 kts | 116° |
| 2026-05-05 15:52 | 47.09893 | 9.10562 | 30100 ft | 480 kts | 117° |
| 2026-05-05 15:53 | 47.08615 | 9.15094 | 29425 ft | 479 kts | 116° |
| 2026-05-05 15:53 | 47.07404 | 9.19622 | 28791 ft | 472 kts | 116° |
| 2026-05-05 15:53 | 47.06226 | 9.24098 | 28174 ft | 467 kts | 116° |
| 2026-05-05 15:53 | 47.05029 | 9.28482 | 27562 ft | 461 kts | 116° |
| 2026-05-05 15:54 | 47.03826 | 9.32807 | 26962 ft | 455 kts | 116° |
| 2026-05-05 15:54 | 47.02649 | 9.37114 | 26359 ft | 451 kts | 116° |
| 2026-05-05 15:54 | 47.01501 | 9.41364 | 25773 ft | 445 kts | 116° |
| 2026-05-05 15:54 | 47.00352 | 9.45567 | 25175 ft | 440 kts | 116° |
| 2026-05-05 15:55 | 46.99225 | 9.49645 | 24624 ft | 436 kts | 117° |
| 2026-05-05 15:55 | 46.98082 | 9.53784 | 24046 ft | 437 kts | 117° |
| 2026-05-05 15:55 | 46.96956 | 9.57890 | 23470 ft | 433 kts | 116° |
| 2026-05-05 15:55 | 46.95838 | 9.61959 | 22856 ft | 427 kts | 116° |
| 2026-05-05 15:56 | 46.94730 | 9.65965 | 22294 ft | 422 kts | 116° |
| 2026-05-05 15:56 | 46.93623 | 9.69946 | 21745 ft | 421 kts | 116° |
| 2026-05-05 15:56 | 46.92532 | 9.73880 | 21196 ft | 420 kts | 116° |
| 2026-05-05 15:56 | 46.91425 | 9.77879 | 20642 ft | 417 kts | 116° |
| 2026-05-05 15:57 | 46.90350 | 9.81743 | 20101 ft | 414 kts | 116° |
| 2026-05-05 15:57 | 46.89255 | 9.85654 | 19553 ft | 413 kts | 116° |
| 2026-05-05 15:57 | 46.88168 | 9.89544 | 19022 ft | 413 kts | 116° |
| 2026-05-05 15:57 | 46.87088 | 9.93422 | 18490 ft | 410 kts | 115° |
| 2026-05-05 15:58 | 46.86033 | 9.97213 | 17932 ft | 394 kts | 115° |
| 2026-05-05 15:58 | 46.85017 | 10.00849 | 17507 ft | 376 kts | 116° |
| 2026-05-05 15:58 | 46.84041 | 10.04322 | 17022 ft | 363 kts | 116° |
| 2026-05-05 15:58 | 46.83096 | 10.07670 | 16560 ft | 351 kts | 116° |
| 2026-05-05 15:59 | 46.82186 | 10.10895 | 16113 ft | 341 kts | 116° |
| 2026-05-05 15:59 | 46.81290 | 10.14067 | 15691 ft | 334 kts | 116° |
| 2026-05-05 15:59 | 46.80404 | 10.17195 | 15221 ft | 329 kts | 116° |
| 2026-05-05 15:59 | 46.79546 | 10.20249 | 14795 ft | 321 kts | 117° |
| 2026-05-05 16:00 | 46.78728 | 10.23158 | 14392 ft | 297 kts | 116° |
| 2026-05-05 16:00 | 46.77968 | 10.25879 | 14010 ft | 287 kts | 116° |
| 2026-05-05 16:00 | 46.77557 | 10.28669 | 13960 ft | 278 kts | 94° |
| 2026-05-05 16:00 | 46.77877 | 10.31420 | 13984 ft | 277 kts | 71° |
| 2026-05-05 16:01 | 46.78876 | 10.33844 | 13999 ft | 283 kts | 47° |
| 2026-05-05 16:01 | 46.80430 | 10.35568 | 14013 ft | 280 kts | 23° |
| 2026-05-05 16:01 | 46.82259 | 10.36327 | 14011 ft | 275 kts | 0° |
| 2026-05-05 16:01 | 46.84129 | 10.36076 | 14007 ft | 267 kts | 339° |
| 2026-05-05 16:02 | 46.85782 | 10.34960 | 14035 ft | 259 kts | 324° |
| 2026-05-05 16:02 | 46.87346 | 10.33621 | 14020 ft | 261 kts | 324° |
| 2026-05-05 16:02 | 46.88913 | 10.32293 | 14011 ft | 259 kts | 324° |
| 2026-05-05 16:02 | 46.90437 | 10.30893 | 13982 ft | 256 kts | 315° |
| 2026-05-05 16:03 | 46.91525 | 10.28918 | 14001 ft | 245 kts | 294° |
| 2026-05-05 16:03 | 46.92040 | 10.26629 | 14006 ft | 237 kts | 275° |
| 2026-05-05 16:03 | 46.91984 | 10.24268 | 13975 ft | 227 kts | 255° |
| 2026-05-05 16:03 | 46.91396 | 10.22097 | 13988 ft | 236 kts | 238° |
| 2026-05-05 16:04 | 46.90313 | 10.20334 | 14013 ft | 234 kts | 220° |
| 2026-05-05 16:04 | 46.88869 | 10.19201 | 14003 ft | 238 kts | 202° |
| 2026-05-05 16:04 | 46.87205 | 10.18874 | 13991 ft | 245 kts | 183° |
| 2026-05-05 16:04 | 46.85523 | 10.19460 | 13973 ft | 254 kts | 162° |
| 2026-05-05 16:05 | 46.83970 | 10.20743 | 14032 ft | 258 kts | 155° |
| 2026-05-05 16:05 | 46.82428 | 10.22071 | 14022 ft | 257 kts | 155° |
| 2026-05-05 16:05 | 46.80894 | 10.23379 | 13815 ft | 262 kts | 155° |
| 2026-05-05 16:05 | 46.79285 | 10.24744 | 13327 ft | 263 kts | 155° |
| 2026-05-05 16:06 | 46.77747 | 10.26057 | 13003 ft | 252 kts | 154° |
| 2026-05-05 16:06 | 46.76303 | 10.27435 | 12997 ft | 245 kts | 151° |
| 2026-05-05 16:06 | 46.74689 | 10.28034 | 12966 ft | 238 kts | 188° |
| 2026-05-05 16:06 | 46.73254 | 10.27017 | 13007 ft | 233 kts | 225° |
| 2026-05-05 16:07 | 46.72495 | 10.24930 | 13060 ft | 236 kts | 250° |
| 2026-05-05 16:07 | 46.72125 | 10.22583 | 13059 ft | 235 kts | 257° |
| 2026-05-05 16:07 | 46.71862 | 10.20423 | 13074 ft | 206 kts | 257° |
| 2026-05-05 16:07 | 46.71647 | 10.18419 | 12808 ft | 195 kts | 258° |
| 2026-05-05 16:08 | 46.71266 | 10.16593 | 12413 ft | 190 kts | 236° |
| 2026-05-05 16:08 | 46.70409 | 10.15144 | 12065 ft | 188 kts | 226° |
| 2026-05-05 16:08 | 46.69520 | 10.13765 | 11751 ft | 185 kts | 228° |
| 2026-05-05 16:08 | 46.68704 | 10.12316 | 11450 ft | 183 kts | 231° |
| 2026-05-05 16:09 | 46.67922 | 10.10865 | 11158 ft | 183 kts | 230° |
| 2026-05-05 16:09 | 46.67140 | 10.09409 | 10836 ft | 176 kts | 230° |
| 2026-05-05 16:09 | 46.66404 | 10.08011 | 10521 ft | 178 kts | 231° |
| 2026-05-05 16:09 | 46.65637 | 10.06550 | 10205 ft | 180 kts | 230° |
| 2026-05-05 16:10 | 46.64894 | 10.05104 | 9914 ft | 179 kts | 231° |
| 2026-05-05 16:10 | 46.64122 | 10.03619 | 9607 ft | 188 kts | 230° |
| 2026-05-05 16:10 | 46.63313 | 10.02178 | 9296 ft | 184 kts | 225° |
| 2026-05-05 16:10 | 46.62467 | 10.00806 | 9003 ft | 179 kts | 225° |
| 2026-05-05 16:11 | 46.61707 | 9.99534 | 8686 ft | 159 kts | 226° |
| 2026-05-05 16:11 | 46.59650 | 9.96169 | 7632 ft | 142 kts | 224° |
| 2026-05-05 16:12 | 46.58971 | 9.95151 | 7405 ft | 134 kts | 220° |
| 2026-05-05 16:12 | 46.57693 | 9.93162 | 6861 ft | 137 kts | 230° |
| 2026-05-05 16:13 | 46.55846 | 9.90347 | 6368 ft | 149 kts | 213° |
| 2026-05-05 16:13 | 46.54634 | 9.89362 | 5859 ft | 146 kts | 212° |
| 2026-05-05 16:13 | 46.53789 | 9.88695 | 5608 ft | 126 kts | 210° |
| 2026-05-05 16:14 | 46.53018 | 9.88064 | 5600 ft | 17 kts | 209° |
| 2026-05-05 16:14 | 46.52998 | 9.87960 | 5599 ft | 7 kts | 301° |
| 2026-05-05 16:15 | 46.53057 | 9.87973 | 5607 ft | 6 kts | 53° |
| 2026-05-05 16:15 | 46.53074 | 9.87996 | 5604 ft | 0 kts | 338° |
| 2026-05-05 16:16 | 46.53074 | 9.87992 | 5604 ft | 0 kts | 292° |